sensor_id;sensor_type;location;lat;lon;timestamp;P1;durP1;ratioP1;P2;durP2;ratioP2
74170;SDS011;62526;50.948;6.590;2023-07-20T00:01:44;6.20;;;2.80;;
74170;SDS011;62526;50.948;6.590;2023-07-20T00:04:11;4.03;;;3.12;;
74170;SDS011;62526;50.948;6.590;2023-07-20T00:06:37;7.37;;;3.12;;
74170;SDS011;62526;50.948;6.590;2023-07-20T00:09:05;6.37;;;2.97;;
74170;SDS011;62526;50.948;6.590;2023-07-20T00:11:35;6.90;;;3.85;;
74170;SDS011;62526;50.948;6.590;2023-07-20T00:13:58;11.95;;;3.62;;
74170;SDS011;62526;50.948;6.590;2023-07-20T00:16:26;6.20;;;3.50;;
74170;SDS011;62526;50.948;6.590;2023-07-20T00:18:53;4.57;;;2.92;;
74170;SDS011;62526;50.948;6.590;2023-07-20T00:21:20;6.60;;;2.85;;
74170;SDS011;62526;50.948;6.590;2023-07-20T00:23:47;4.37;;;2.95;;
74170;SDS011;62526;50.948;6.590;2023-07-20T00:26:14;12.00;;;3.30;;
74170;SDS011;62526;50.948;6.590;2023-07-20T00:28:41;4.03;;;3.03;;
74170;SDS011;62526;50.948;6.590;2023-07-20T00:31:09;5.82;;;3.20;;
74170;SDS011;62526;50.948;6.590;2023-07-20T00:33:35;6.85;;;3.00;;
74170;SDS011;62526;50.948;6.590;2023-07-20T00:36:03;5.20;;;2.97;;
74170;SDS011;62526;50.948;6.590;2023-07-20T00:38:30;8.90;;;2.65;;
74170;SDS011;62526;50.948;6.590;2023-07-20T00:40:57;4.25;;;2.70;;
74170;SDS011;62526;50.948;6.590;2023-07-20T00:43:24;6.05;;;2.80;;
74170;SDS011;62526;50.948;6.590;2023-07-20T00:45:51;4.00;;;2.47;;
74170;SDS011;62526;50.948;6.590;2023-07-20T00:48:18;7.47;;;3.33;;
74170;SDS011;62526;50.948;6.590;2023-07-20T00:50:45;6.35;;;2.70;;
74170;SDS011;62526;50.948;6.590;2023-07-20T00:53:12;8.82;;;3.40;;
74170;SDS011;62526;50.948;6.590;2023-07-20T00:55:38;8.95;;;2.92;;
74170;SDS011;62526;50.948;6.590;2023-07-20T00:58:05;4.82;;;2.83;;
74170;SDS011;62526;50.948;6.590;2023-07-20T01:00:32;7.10;;;3.15;;
74170;SDS011;62526;50.948;6.590;2023-07-20T01:02:59;3.22;;;2.65;;
74170;SDS011;62526;50.948;6.590;2023-07-20T01:05:28;5.05;;;2.58;;
74170;SDS011;62526;50.948;6.590;2023-07-20T01:07:55;3.58;;;2.62;;
74170;SDS011;62526;50.948;6.590;2023-07-20T01:10:25;4.68;;;2.80;;
74170;SDS011;62526;50.948;6.590;2023-07-20T01:12:52;4.15;;;2.70;;
74170;SDS011;62526;50.948;6.590;2023-07-20T01:15:18;4.82;;;2.50;;
74170;SDS011;62526;50.948;6.590;2023-07-20T01:17:45;4.43;;;2.50;;
74170;SDS011;62526;50.948;6.590;2023-07-20T01:20:13;3.20;;;2.87;;
74170;SDS011;62526;50.948;6.590;2023-07-20T01:22:47;2.78;;;2.10;;
74170;SDS011;62526;50.948;6.590;2023-07-20T01:25:29;5.35;;;2.72;;
74170;SDS011;62526;50.948;6.590;2023-07-20T01:28:02;5.37;;;3.15;;
74170;SDS011;62526;50.948;6.590;2023-07-20T01:30:52;5.82;;;3.28;;
74170;SDS011;62526;50.948;6.590;2023-07-20T01:33:22;4.85;;;3.12;;
74170;SDS011;62526;50.948;6.590;2023-07-20T01:35:52;5.78;;;3.10;;
74170;SDS011;62526;50.948;6.590;2023-07-20T01:38:19;8.05;;;3.47;;
74170;SDS011;62526;50.948;6.590;2023-07-20T01:40:47;5.55;;;3.53;;
74170;SDS011;62526;50.948;6.590;2023-07-20T01:43:14;6.18;;;3.17;;
74170;SDS011;62526;50.948;6.590;2023-07-20T01:45:41;7.97;;;3.00;;
74170;SDS011;62526;50.948;6.590;2023-07-20T01:48:08;6.05;;;3.50;;
74170;SDS011;62526;50.948;6.590;2023-07-20T01:50:34;5.10;;;3.40;;
74170;SDS011;62526;50.948;6.590;2023-07-20T01:53:02;7.72;;;3.65;;
74170;SDS011;62526;50.948;6.590;2023-07-20T01:55:29;8.30;;;3.42;;
74170;SDS011;62526;50.948;6.590;2023-07-20T01:57:56;7.00;;;3.22;;
74170;SDS011;62526;50.948;6.590;2023-07-20T02:00:24;5.90;;;3.58;;
74170;SDS011;62526;50.948;6.590;2023-07-20T02:02:51;5.10;;;3.90;;
74170;SDS011;62526;50.948;6.590;2023-07-20T02:05:18;8.55;;;3.72;;
74170;SDS011;62526;50.948;6.590;2023-07-20T02:07:45;6.80;;;3.72;;
74170;SDS011;62526;50.948;6.590;2023-07-20T02:10:11;7.75;;;3.35;;
74170;SDS011;62526;50.948;6.590;2023-07-20T02:12:38;5.65;;;3.25;;
74170;SDS011;62526;50.948;6.590;2023-07-20T02:15:05;6.20;;;3.55;;
74170;SDS011;62526;50.948;6.590;2023-07-20T02:17:33;7.37;;;3.72;;
74170;SDS011;62526;50.948;6.590;2023-07-20T02:19:59;8.55;;;3.62;;
74170;SDS011;62526;50.948;6.590;2023-07-20T02:22:26;10.25;;;4.00;;
74170;SDS011;62526;50.948;6.590;2023-07-20T02:24:53;7.05;;;3.42;;
74170;SDS011;62526;50.948;6.590;2023-07-20T02:27:19;9.30;;;3.33;;
74170;SDS011;62526;50.948;6.590;2023-07-20T02:29:46;5.12;;;3.00;;
74170;SDS011;62526;50.948;6.590;2023-07-20T02:32:13;9.18;;;3.35;;
74170;SDS011;62526;50.948;6.590;2023-07-20T02:34:40;7.80;;;3.97;;
74170;SDS011;62526;50.948;6.590;2023-07-20T02:37:06;6.82;;;2.92;;
74170;SDS011;62526;50.948;6.590;2023-07-20T02:39:33;6.28;;;3.33;;
74170;SDS011;62526;50.948;6.590;2023-07-20T02:42:00;4.47;;;3.25;;
74170;SDS011;62526;50.948;6.590;2023-07-20T02:44:26;7.35;;;2.95;;
74170;SDS011;62526;50.948;6.590;2023-07-20T02:46:53;5.75;;;2.90;;
74170;SDS011;62526;50.948;6.590;2023-07-20T02:49:21;7.22;;;3.30;;
74170;SDS011;62526;50.948;6.590;2023-07-20T02:51:47;8.73;;;3.40;;
74170;SDS011;62526;50.948;6.590;2023-07-20T02:54:14;5.85;;;3.22;;
74170;SDS011;62526;50.948;6.590;2023-07-20T02:56:41;5.32;;;2.85;;
74170;SDS011;62526;50.948;6.590;2023-07-20T02:59:08;4.80;;;2.90;;
74170;SDS011;62526;50.948;6.590;2023-07-20T03:01:34;5.78;;;3.15;;
74170;SDS011;62526;50.948;6.590;2023-07-20T03:04:01;8.23;;;3.30;;
74170;SDS011;62526;50.948;6.590;2023-07-20T03:06:28;8.38;;;3.67;;
74170;SDS011;62526;50.948;6.590;2023-07-20T03:08:54;5.72;;;3.22;;
74170;SDS011;62526;50.948;6.590;2023-07-20T03:11:21;6.93;;;3.60;;
74170;SDS011;62526;50.948;6.590;2023-07-20T03:13:48;7.03;;;3.62;;
74170;SDS011;62526;50.948;6.590;2023-07-20T03:16:17;5.05;;;3.37;;
74170;SDS011;62526;50.948;6.590;2023-07-20T03:18:42;4.28;;;2.87;;
74170;SDS011;62526;50.948;6.590;2023-07-20T03:21:09;10.15;;;3.53;;
74170;SDS011;62526;50.948;6.590;2023-07-20T03:23:37;5.62;;;2.95;;
74170;SDS011;62526;50.948;6.590;2023-07-20T03:26:03;7.05;;;3.40;;
74170;SDS011;62526;50.948;6.590;2023-07-20T03:28:30;5.68;;;3.42;;
74170;SDS011;62526;50.948;6.590;2023-07-20T03:30:58;10.55;;;4.12;;
74170;SDS011;62526;50.948;6.590;2023-07-20T03:33:27;6.30;;;3.65;;
74170;SDS011;62526;50.948;6.590;2023-07-20T03:35:55;9.85;;;4.20;;
74170;SDS011;62526;50.948;6.590;2023-07-20T03:38:21;10.73;;;4.20;;
74170;SDS011;62526;50.948;6.590;2023-07-20T03:40:50;10.02;;;4.15;;
74170;SDS011;62526;50.948;6.590;2023-07-20T03:43:17;11.15;;;3.45;;
74170;SDS011;62526;50.948;6.590;2023-07-20T03:45:43;11.77;;;4.00;;
74170;SDS011;62526;50.948;6.590;2023-07-20T03:48:13;10.25;;;4.00;;
74170;SDS011;62526;50.948;6.590;2023-07-20T03:50:39;9.55;;;4.07;;
74170;SDS011;62526;50.948;6.590;2023-07-20T03:53:06;6.60;;;4.50;;
74170;SDS011;62526;50.948;6.590;2023-07-20T03:55:33;9.07;;;4.20;;
74170;SDS011;62526;50.948;6.590;2023-07-20T03:58:01;8.18;;;4.30;;
74170;SDS011;62526;50.948;6.590;2023-07-20T04:00:27;6.25;;;4.20;;
74170;SDS011;62526;50.948;6.590;2023-07-20T04:02:54;8.93;;;4.12;;
74170;SDS011;62526;50.948;6.590;2023-07-20T04:05:22;12.05;;;4.50;;
74170;SDS011;62526;50.948;6.590;2023-07-20T04:07:49;6.03;;;3.60;;
74170;SDS011;62526;50.948;6.590;2023-07-20T04:10:16;4.85;;;3.17;;
74170;SDS011;62526;50.948;6.590;2023-07-20T04:12:43;6.80;;;3.55;;
74170;SDS011;62526;50.948;6.590;2023-07-20T04:15:10;8.43;;;3.80;;
74170;SDS011;62526;50.948;6.590;2023-07-20T04:17:37;8.70;;;3.78;;
74170;SDS011;62526;50.948;6.590;2023-07-20T04:20:04;7.30;;;3.87;;
74170;SDS011;62526;50.948;6.590;2023-07-20T04:22:31;8.35;;;3.95;;
74170;SDS011;62526;50.948;6.590;2023-07-20T04:24:58;8.95;;;3.90;;
74170;SDS011;62526;50.948;6.590;2023-07-20T04:27:26;6.72;;;3.80;;
74170;SDS011;62526;50.948;6.590;2023-07-20T04:29:53;11.20;;;4.35;;
74170;SDS011;62526;50.948;6.590;2023-07-20T04:32:20;7.20;;;4.22;;
74170;SDS011;62526;50.948;6.590;2023-07-20T04:34:47;10.52;;;4.07;;
74170;SDS011;62526;50.948;6.590;2023-07-20T04:37:14;9.02;;;4.15;;
74170;SDS011;62526;50.948;6.590;2023-07-20T04:39:41;8.52;;;4.40;;
74170;SDS011;62526;50.948;6.590;2023-07-20T04:42:07;8.90;;;4.12;;
74170;SDS011;62526;50.948;6.590;2023-07-20T04:44:34;8.38;;;4.25;;
74170;SDS011;62526;50.948;6.590;2023-07-20T04:47:01;13.57;;;4.45;;
74170;SDS011;62526;50.948;6.590;2023-07-20T04:49:28;10.90;;;4.80;;
74170;SDS011;62526;50.948;6.590;2023-07-20T04:51:54;9.63;;;4.55;;
74170;SDS011;62526;50.948;6.590;2023-07-20T04:54:22;9.90;;;4.55;;
74170;SDS011;62526;50.948;6.590;2023-07-20T04:56:49;10.52;;;5.00;;
74170;SDS011;62526;50.948;6.590;2023-07-20T04:59:16;10.57;;;4.47;;
74170;SDS011;62526;50.948;6.590;2023-07-20T05:01:42;8.27;;;4.70;;
74170;SDS011;62526;50.948;6.590;2023-07-20T05:04:09;6.95;;;4.22;;
74170;SDS011;62526;50.948;6.590;2023-07-20T05:06:37;9.68;;;6.00;;
74170;SDS011;62526;50.948;6.590;2023-07-20T05:09:04;12.52;;;5.00;;
74170;SDS011;62526;50.948;6.590;2023-07-20T05:11:30;11.65;;;5.10;;
74170;SDS011;62526;50.948;6.590;2023-07-20T05:13:57;9.82;;;5.35;;
74170;SDS011;62526;50.948;6.590;2023-07-20T05:16:24;12.32;;;5.30;;
74170;SDS011;62526;50.948;6.590;2023-07-20T05:18:51;9.07;;;4.68;;
74170;SDS011;62526;50.948;6.590;2023-07-20T05:21:18;12.02;;;5.37;;
74170;SDS011;62526;50.948;6.590;2023-07-20T05:23:45;11.38;;;5.45;;
74170;SDS011;62526;50.948;6.590;2023-07-20T05:26:12;11.88;;;5.50;;
74170;SDS011;62526;50.948;6.590;2023-07-20T05:28:38;13.62;;;5.82;;
74170;SDS011;62526;50.948;6.590;2023-07-20T05:31:05;8.48;;;4.15;;
74170;SDS011;62526;50.948;6.590;2023-07-20T05:33:34;9.82;;;5.87;;
74170;SDS011;62526;50.948;6.590;2023-07-20T05:36:00;16.62;;;6.35;;
74170;SDS011;62526;50.948;6.590;2023-07-20T05:38:27;13.52;;;6.15;;
74170;SDS011;62526;50.948;6.590;2023-07-20T05:40:58;7.37;;;3.80;;
74170;SDS011;62526;50.948;6.590;2023-07-20T05:43:20;15.73;;;6.62;;
74170;SDS011;62526;50.948;6.590;2023-07-20T05:45:47;8.75;;;5.97;;
74170;SDS011;62526;50.948;6.590;2023-07-20T05:48:14;9.15;;;6.62;;
74170;SDS011;62526;50.948;6.590;2023-07-20T05:50:42;8.88;;;4.80;;
74170;SDS011;62526;50.948;6.590;2023-07-20T05:53:09;14.60;;;6.80;;
74170;SDS011;62526;50.948;6.590;2023-07-20T05:55:36;12.00;;;6.22;;
74170;SDS011;62526;50.948;6.590;2023-07-20T05:58:02;9.63;;;5.78;;
74170;SDS011;62526;50.948;6.590;2023-07-20T06:00:30;17.80;;;7.97;;
74170;SDS011;62526;50.948;6.590;2023-07-20T06:02:57;12.40;;;7.72;;
74170;SDS011;62526;50.948;6.590;2023-07-20T06:05:24;13.48;;;7.25;;
74170;SDS011;62526;50.948;6.590;2023-07-20T06:07:51;11.73;;;7.12;;
74170;SDS011;62526;50.948;6.590;2023-07-20T06:10:17;16.50;;;9.15;;
74170;SDS011;62526;50.948;6.590;2023-07-20T06:12:44;12.88;;;8.57;;
74170;SDS011;62526;50.948;6.590;2023-07-20T06:17:50;10.68;;;8.38;;
74170;SDS011;62526;50.948;6.590;2023-07-20T06:20:16;9.98;;;7.78;;
74170;SDS011;62526;50.948;6.590;2023-07-20T06:22:44;13.45;;;8.50;;
74170;SDS011;62526;50.948;6.590;2023-07-20T06:25:10;18.00;;;9.35;;
74170;SDS011;62526;50.948;6.590;2023-07-20T06:27:38;11.40;;;8.57;;
74170;SDS011;62526;50.948;6.590;2023-07-20T06:30:05;15.77;;;8.77;;
74170;SDS011;62526;50.948;6.590;2023-07-20T06:32:32;14.68;;;9.07;;
74170;SDS011;62526;50.948;6.590;2023-07-20T06:37:38;11.02;;;9.18;;
74170;SDS011;62526;50.948;6.590;2023-07-20T06:40:05;11.45;;;8.10;;
74170;SDS011;62526;50.948;6.590;2023-07-20T06:42:32;10.20;;;7.50;;
74170;SDS011;62526;50.948;6.590;2023-07-20T06:44:59;9.98;;;7.10;;
74170;SDS011;62526;50.948;6.590;2023-07-20T06:47:26;12.80;;;8.57;;
74170;SDS011;62526;50.948;6.590;2023-07-20T06:49:52;13.27;;;9.27;;
74170;SDS011;62526;50.948;6.590;2023-07-20T06:52:20;12.98;;;9.90;;
74170;SDS011;62526;50.948;6.590;2023-07-20T06:54:46;12.40;;;9.25;;
74170;SDS011;62526;50.948;6.590;2023-07-20T06:57:14;12.98;;;7.68;;
74170;SDS011;62526;50.948;6.590;2023-07-20T06:59:40;11.55;;;7.47;;
74170;SDS011;62526;50.948;6.590;2023-07-20T07:02:08;10.05;;;7.70;;
74170;SDS011;62526;50.948;6.590;2023-07-20T07:04:34;8.15;;;5.87;;
74170;SDS011;62526;50.948;6.590;2023-07-20T07:07:01;12.82;;;7.43;;
74170;SDS011;62526;50.948;6.590;2023-07-20T07:09:28;13.38;;;8.35;;
74170;SDS011;62526;50.948;6.590;2023-07-20T07:11:54;8.45;;;5.40;;
74170;SDS011;62526;50.948;6.590;2023-07-20T07:14:21;10.93;;;6.68;;
74170;SDS011;62526;50.948;6.590;2023-07-20T07:16:48;12.63;;;5.90;;
74170;SDS011;62526;50.948;6.590;2023-07-20T07:19:15;8.35;;;6.35;;
74170;SDS011;62526;50.948;6.590;2023-07-20T07:21:42;10.68;;;6.37;;
74170;SDS011;62526;50.948;6.590;2023-07-20T07:24:08;8.07;;;5.75;;
74170;SDS011;62526;50.948;6.590;2023-07-20T07:26:36;8.57;;;5.85;;
74170;SDS011;62526;50.948;6.590;2023-07-20T07:29:03;5.20;;;4.60;;
74170;SDS011;62526;50.948;6.590;2023-07-20T07:31:33;7.70;;;4.72;;
74170;SDS011;62526;50.948;6.590;2023-07-20T07:33:56;8.75;;;4.80;;
74170;SDS011;62526;50.948;6.590;2023-07-20T07:36:24;8.65;;;7.10;;
74170;SDS011;62526;50.948;6.590;2023-07-20T07:38:50;9.40;;;5.57;;
74170;SDS011;62526;50.948;6.590;2023-07-20T07:41:17;9.82;;;6.53;;
74170;SDS011;62526;50.948;6.590;2023-07-20T07:43:44;7.85;;;6.00;;
74170;SDS011;62526;50.948;6.590;2023-07-20T07:46:11;10.02;;;5.60;;
74170;SDS011;62526;50.948;6.590;2023-07-20T07:48:37;6.85;;;5.80;;
74170;SDS011;62526;50.948;6.590;2023-07-20T07:51:04;9.15;;;5.50;;
74170;SDS011;62526;50.948;6.590;2023-07-20T07:53:31;9.85;;;5.43;;
74170;SDS011;62526;50.948;6.590;2023-07-20T07:56:00;7.93;;;5.28;;
74170;SDS011;62526;50.948;6.590;2023-07-20T07:58:27;8.00;;;4.35;;
74170;SDS011;62526;50.948;6.590;2023-07-20T08:00:53;5.28;;;4.00;;
74170;SDS011;62526;50.948;6.590;2023-07-20T08:03:20;6.90;;;5.10;;
74170;SDS011;62526;50.948;6.590;2023-07-20T08:05:46;7.40;;;5.05;;
74170;SDS011;62526;50.948;6.590;2023-07-20T08:08:13;8.35;;;4.12;;
74170;SDS011;62526;50.948;6.590;2023-07-20T08:10:40;5.62;;;3.50;;
74170;SDS011;62526;50.948;6.590;2023-07-20T08:13:06;6.93;;;4.45;;
74170;SDS011;62526;50.948;6.590;2023-07-20T08:15:33;6.30;;;3.85;;
74170;SDS011;62526;50.948;6.590;2023-07-20T08:18:01;4.50;;;3.08;;
74170;SDS011;62526;50.948;6.590;2023-07-20T08:20:27;6.00;;;4.62;;
74170;SDS011;62526;50.948;6.590;2023-07-20T08:22:54;5.72;;;4.45;;
74170;SDS011;62526;50.948;6.590;2023-07-20T08:25:21;8.13;;;4.87;;
74170;SDS011;62526;50.948;6.590;2023-07-20T08:27:47;6.22;;;4.55;;
74170;SDS011;62526;50.948;6.590;2023-07-20T08:30:14;6.18;;;4.12;;
74170;SDS011;62526;50.948;6.590;2023-07-20T08:32:40;6.07;;;4.70;;
74170;SDS011;62526;50.948;6.590;2023-07-20T08:35:08;5.78;;;4.12;;
74170;SDS011;62526;50.948;6.590;2023-07-20T08:37:35;5.68;;;3.83;;
74170;SDS011;62526;50.948;6.590;2023-07-20T08:40:02;7.72;;;4.32;;
74170;SDS011;62526;50.948;6.590;2023-07-20T08:42:28;6.93;;;4.18;;
74170;SDS011;62526;50.948;6.590;2023-07-20T08:44:55;8.02;;;4.95;;
74170;SDS011;62526;50.948;6.590;2023-07-20T08:47:22;5.12;;;3.95;;
74170;SDS011;62526;50.948;6.590;2023-07-20T08:49:48;6.10;;;4.28;;
74170;SDS011;62526;50.948;6.590;2023-07-20T08:52:15;9.25;;;4.12;;
74170;SDS011;62526;50.948;6.590;2023-07-20T08:54:42;5.82;;;4.20;;
74170;SDS011;62526;50.948;6.590;2023-07-20T08:57:09;8.05;;;4.25;;
74170;SDS011;62526;50.948;6.590;2023-07-20T08:59:36;7.35;;;4.00;;
74170;SDS011;62526;50.948;6.590;2023-07-20T09:02:02;6.80;;;3.72;;
74170;SDS011;62526;50.948;6.590;2023-07-20T09:04:30;4.78;;;3.30;;
74170;SDS011;62526;50.948;6.590;2023-07-20T09:06:57;4.45;;;3.95;;
74170;SDS011;62526;50.948;6.590;2023-07-20T09:09:24;6.47;;;3.58;;
74170;SDS011;62526;50.948;6.590;2023-07-20T09:11:50;7.00;;;4.10;;
74170;SDS011;62526;50.948;6.590;2023-07-20T09:14:17;6.75;;;3.20;;
74170;SDS011;62526;50.948;6.590;2023-07-20T09:16:47;7.32;;;2.90;;
74170;SDS011;62526;50.948;6.590;2023-07-20T09:19:14;3.95;;;2.75;;
74170;SDS011;62526;50.948;6.590;2023-07-20T09:21:43;4.93;;;2.80;;
74170;SDS011;62526;50.948;6.590;2023-07-20T09:24:11;3.53;;;2.70;;
74170;SDS011;62526;50.948;6.590;2023-07-20T09:26:41;5.30;;;2.65;;
74170;SDS011;62526;50.948;6.590;2023-07-20T09:29:09;4.55;;;2.53;;
74170;SDS011;62526;50.948;6.590;2023-07-20T09:31:35;3.20;;;2.30;;
74170;SDS011;62526;50.948;6.590;2023-07-20T09:34:02;5.80;;;2.67;;
74170;SDS011;62526;50.948;6.590;2023-07-20T09:36:29;5.50;;;3.00;;
74170;SDS011;62526;50.948;6.590;2023-07-20T09:38:56;6.10;;;3.08;;
74170;SDS011;62526;50.948;6.590;2023-07-20T09:41:22;3.65;;;2.40;;
74170;SDS011;62526;50.948;6.590;2023-07-20T09:43:49;6.75;;;3.33;;
74170;SDS011;62526;50.948;6.590;2023-07-20T09:46:15;7.15;;;3.03;;
74170;SDS011;62526;50.948;6.590;2023-07-20T09:48:51;5.43;;;2.78;;
74170;SDS011;62526;50.948;6.590;2023-07-20T09:51:09;3.00;;;2.30;;
74170;SDS011;62526;50.948;6.590;2023-07-20T09:53:36;2.15;;;1.80;;
74170;SDS011;62526;50.948;6.590;2023-07-20T09:56:03;3.25;;;2.22;;
74170;SDS011;62526;50.948;6.590;2023-07-20T09:58:30;3.00;;;2.15;;
74170;SDS011;62526;50.948;6.590;2023-07-20T10:00:57;3.37;;;2.20;;
74170;SDS011;62526;50.948;6.590;2023-07-20T10:03:28;3.28;;;2.30;;
74170;SDS011;62526;50.948;6.590;2023-07-20T10:05:56;5.57;;;2.40;;
74170;SDS011;62526;50.948;6.590;2023-07-20T10:08:22;4.50;;;2.00;;
74170;SDS011;62526;50.948;6.590;2023-07-20T10:10:48;3.78;;;2.15;;
74170;SDS011;62526;50.948;6.590;2023-07-20T10:13:17;4.68;;;1.80;;
74170;SDS011;62526;50.948;6.590;2023-07-20T10:15:46;2.37;;;1.90;;
74170;SDS011;62526;50.948;6.590;2023-07-20T10:18:12;2.47;;;2.20;;
74170;SDS011;62526;50.948;6.590;2023-07-20T10:20:39;3.85;;;2.08;;
74170;SDS011;62526;50.948;6.590;2023-07-20T10:23:05;3.08;;;2.03;;
74170;SDS011;62526;50.948;6.590;2023-07-20T10:25:31;3.08;;;2.45;;
74170;SDS011;62526;50.948;6.590;2023-07-20T10:27:58;1.60;;;1.50;;
74170;SDS011;62526;50.948;6.590;2023-07-20T10:30:25;1.80;;;1.70;;
74170;SDS011;62526;50.948;6.590;2023-07-20T10:35:30;1.83;;;1.67;;
74170;SDS011;62526;50.948;6.590;2023-07-20T10:38:00;2.75;;;1.83;;
74170;SDS011;62526;50.948;6.590;2023-07-20T10:40:27;1.52;;;1.42;;
74170;SDS011;62526;50.948;6.590;2023-07-20T10:42:57;2.00;;;1.73;;
74170;SDS011;62526;50.948;6.590;2023-07-20T10:47:59;2.47;;;1.40;;
74170;SDS011;62526;50.948;6.590;2023-07-20T10:50:25;2.62;;;1.20;;
74170;SDS011;62526;50.948;6.590;2023-07-20T10:55:32;2.92;;;1.40;;
74170;SDS011;62526;50.948;6.590;2023-07-20T10:58:09;1.62;;;1.52;;
74170;SDS011;62526;50.948;6.590;2023-07-20T11:00:37;5.57;;;1.50;;
74170;SDS011;62526;50.948;6.590;2023-07-20T11:03:04;2.12;;;1.90;;
74170;SDS011;62526;50.948;6.590;2023-07-20T11:05:33;1.55;;;1.40;;
74170;SDS011;62526;50.948;6.590;2023-07-20T11:07:59;1.52;;;1.42;;
74170;SDS011;62526;50.948;6.590;2023-07-20T11:10:26;1.50;;;1.27;;
74170;SDS011;62526;50.948;6.590;2023-07-20T11:13:24;1.77;;;1.55;;
74170;SDS011;62526;50.948;6.590;2023-07-20T11:15:44;5.12;;;1.83;;
74170;SDS011;62526;50.948;6.590;2023-07-20T11:18:14;1.70;;;1.60;;
74170;SDS011;62526;50.948;6.590;2023-07-20T11:20:41;3.83;;;1.65;;
74170;SDS011;62526;50.948;6.590;2023-07-20T11:23:08;2.58;;;1.50;;
74170;SDS011;62526;50.948;6.590;2023-07-20T11:25:36;1.67;;;1.30;;
74170;SDS011;62526;50.948;6.590;2023-07-20T11:28:06;4.60;;;1.58;;
74170;SDS011;62526;50.948;6.590;2023-07-20T11:30:32;4.80;;;1.50;;
74170;SDS011;62526;50.948;6.590;2023-07-20T11:32:57;2.83;;;1.60;;
74170;SDS011;62526;50.948;6.590;2023-07-20T11:35:24;5.93;;;2.22;;
74170;SDS011;62526;50.948;6.590;2023-07-20T11:37:51;3.70;;;1.60;;
74170;SDS011;62526;50.948;6.590;2023-07-20T11:40:17;2.30;;;1.55;;
74170;SDS011;62526;50.948;6.590;2023-07-20T11:42:44;6.00;;;1.50;;
74170;SDS011;62526;50.948;6.590;2023-07-20T11:45:11;3.42;;;1.60;;
74170;SDS011;62526;50.948;6.590;2023-07-20T11:47:40;1.42;;;1.33;;
74170;SDS011;62526;50.948;6.590;2023-07-20T11:50:06;4.95;;;1.80;;
74170;SDS011;62526;50.948;6.590;2023-07-20T11:52:33;2.30;;;1.50;;
74170;SDS011;62526;50.948;6.590;2023-07-20T11:55:00;1.73;;;1.58;;
74170;SDS011;62526;50.948;6.590;2023-07-20T11:57:26;1.40;;;1.30;;
74170;SDS011;62526;50.948;6.590;2023-07-20T11:59:54;1.83;;;1.60;;
74170;SDS011;62526;50.948;6.590;2023-07-20T12:02:23;1.58;;;1.42;;
74170;SDS011;62526;50.948;6.590;2023-07-20T12:04:50;5.05;;;2.08;;
74170;SDS011;62526;50.948;6.590;2023-07-20T12:07:18;4.35;;;1.60;;
74170;SDS011;62526;50.948;6.590;2023-07-20T12:10:02;5.85;;;1.60;;
74170;SDS011;62526;50.948;6.590;2023-07-20T12:12:12;2.33;;;1.35;;
74170;SDS011;62526;50.948;6.590;2023-07-20T12:14:39;3.55;;;1.58;;
74170;SDS011;62526;50.948;6.590;2023-07-20T12:17:07;3.00;;;1.60;;
74170;SDS011;62526;50.948;6.590;2023-07-20T12:19:37;1.42;;;1.25;;
74170;SDS011;62526;50.948;6.590;2023-07-20T12:21:59;4.25;;;1.70;;
74170;SDS011;62526;50.948;6.590;2023-07-20T12:24:26;2.90;;;1.60;;
74170;SDS011;62526;50.948;6.590;2023-07-20T12:26:55;3.22;;;1.60;;
74170;SDS011;62526;50.948;6.590;2023-07-20T12:29:23;1.92;;;1.40;;
74170;SDS011;62526;50.948;6.590;2023-07-20T12:31:50;2.30;;;1.55;;
74170;SDS011;62526;50.948;6.590;2023-07-20T12:34:17;1.92;;;1.67;;
74170;SDS011;62526;50.948;6.590;2023-07-20T12:36:44;6.37;;;2.00;;
74170;SDS011;62526;50.948;6.590;2023-07-20T12:39:10;2.20;;;1.50;;
74170;SDS011;62526;50.948;6.590;2023-07-20T12:41:37;2.03;;;1.70;;
74170;SDS011;62526;50.948;6.590;2023-07-20T12:44:04;1.83;;;1.70;;
74170;SDS011;62526;50.948;6.590;2023-07-20T12:46:31;2.08;;;1.52;;
74170;SDS011;62526;50.948;6.590;2023-07-20T12:48:58;4.47;;;1.67;;
74170;SDS011;62526;50.948;6.590;2023-07-20T12:51:24;2.95;;;1.60;;
74170;SDS011;62526;50.948;6.590;2023-07-20T12:53:53;1.92;;;1.70;;
74170;SDS011;62526;50.948;6.590;2023-07-20T12:56:20;2.58;;;2.10;;
74170;SDS011;62526;50.948;6.590;2023-07-20T12:58:49;2.75;;;1.67;;
74170;SDS011;62526;50.948;6.590;2023-07-20T13:01:16;2.55;;;1.65;;
74170;SDS011;62526;50.948;6.590;2023-07-20T13:03:42;2.22;;;1.50;;
74170;SDS011;62526;50.948;6.590;2023-07-20T13:06:09;1.60;;;1.50;;
74170;SDS011;62526;50.948;6.590;2023-07-20T13:08:36;1.87;;;1.67;;
74170;SDS011;62526;50.948;6.590;2023-07-20T13:11:02;1.70;;;1.60;;
74170;SDS011;62526;50.948;6.590;2023-07-20T13:13:30;2.53;;;1.70;;
74170;SDS011;62526;50.948;6.590;2023-07-20T13:15:57;2.20;;;1.60;;
74170;SDS011;62526;50.948;6.590;2023-07-20T13:21:11;2.15;;;1.90;;
74170;SDS011;62526;50.948;6.590;2023-07-20T13:23:37;2.75;;;1.50;;
74170;SDS011;62526;50.948;6.590;2023-07-20T13:26:04;1.60;;;1.50;;
74170;SDS011;62526;50.948;6.590;2023-07-20T13:28:31;2.62;;;1.40;;
74170;SDS011;62526;50.948;6.590;2023-07-20T13:30:58;2.95;;;1.40;;
74170;SDS011;62526;50.948;6.590;2023-07-20T13:33:27;1.85;;;1.50;;
74170;SDS011;62526;50.948;6.590;2023-07-20T13:35:53;5.97;;;1.55;;
74170;SDS011;62526;50.948;6.590;2023-07-20T13:38:21;5.07;;;1.50;;
74170;SDS011;62526;50.948;6.590;2023-07-20T13:40:47;4.12;;;1.50;;
74170;SDS011;62526;50.948;6.590;2023-07-20T13:43:15;2.85;;;1.60;;
74170;SDS011;62526;50.948;6.590;2023-07-20T13:45:41;1.85;;;1.48;;
74170;SDS011;62526;50.948;6.590;2023-07-20T13:48:08;2.35;;;1.40;;
74170;SDS011;62526;50.948;6.590;2023-07-20T13:50:35;5.68;;;1.48;;
74170;SDS011;62526;50.948;6.590;2023-07-20T13:53:01;1.60;;;1.50;;
74170;SDS011;62526;50.948;6.590;2023-07-20T13:55:28;1.70;;;1.48;;
74170;SDS011;62526;50.948;6.590;2023-07-20T13:57:55;2.45;;;1.52;;
74170;SDS011;62526;50.948;6.590;2023-07-20T14:00:21;1.50;;;1.40;;
74170;SDS011;62526;50.948;6.590;2023-07-20T14:02:48;2.05;;;1.50;;
74170;SDS011;62526;50.948;6.590;2023-07-20T14:05:16;1.70;;;1.50;;
74170;SDS011;62526;50.948;6.590;2023-07-20T14:07:42;1.50;;;1.40;;
74170;SDS011;62526;50.948;6.590;2023-07-20T14:10:09;2.20;;;1.60;;
74170;SDS011;62526;50.948;6.590;2023-07-20T14:12:36;3.72;;;1.65;;
74170;SDS011;62526;50.948;6.590;2023-07-20T14:15:03;1.62;;;1.50;;
74170;SDS011;62526;50.948;6.590;2023-07-20T14:17:30;4.25;;;1.87;;
74170;SDS011;62526;50.948;6.590;2023-07-20T14:19:58;2.33;;;1.58;;
74170;SDS011;62526;50.948;6.590;2023-07-20T14:22:25;5.50;;;1.52;;
74170;SDS011;62526;50.948;6.590;2023-07-20T14:24:52;3.70;;;2.00;;
74170;SDS011;62526;50.948;6.590;2023-07-20T14:27:18;2.40;;;1.87;;
74170;SDS011;62526;50.948;6.590;2023-07-20T14:29:45;2.83;;;1.85;;
74170;SDS011;62526;50.948;6.590;2023-07-20T14:32:12;2.50;;;1.90;;
74170;SDS011;62526;50.948;6.590;2023-07-20T14:34:38;2.37;;;2.00;;
74170;SDS011;62526;50.948;6.590;2023-07-20T14:37:05;2.58;;;1.77;;
74170;SDS011;62526;50.948;6.590;2023-07-20T14:39:32;2.17;;;1.67;;
74170;SDS011;62526;50.948;6.590;2023-07-20T14:42:00;2.95;;;1.60;;
74170;SDS011;62526;50.948;6.590;2023-07-20T14:44:27;4.15;;;1.52;;
74170;SDS011;62526;50.948;6.590;2023-07-20T14:46:53;1.67;;;1.50;;
74170;SDS011;62526;50.948;6.590;2023-07-20T14:49:20;2.50;;;1.45;;
74170;SDS011;62526;50.948;6.590;2023-07-20T14:51:46;3.00;;;1.65;;
74170;SDS011;62526;50.948;6.590;2023-07-20T14:54:13;2.40;;;1.45;;
74170;SDS011;62526;50.948;6.590;2023-07-20T14:56:47;1.83;;;1.40;;
74170;SDS011;62526;50.948;6.590;2023-07-20T14:59:06;1.98;;;1.40;;
74170;SDS011;62526;50.948;6.590;2023-07-20T15:01:33;2.75;;;1.40;;